createdAt,value
2019-05-15T00:00:40.676Z,1.47
2019-05-15T00:02:18.396Z,1.44
2019-05-15T00:03:58.532Z,1.43
2019-05-15T00:05:34.126Z,1.41
2019-05-15T00:07:09.720Z,1.40
2019-05-15T00:08:50.236Z,1.36
2019-05-15T00:10:25.370Z,1.40
2019-05-15T00:12:03.124Z,1.41
2019-05-15T00:13:39.227Z,1.48
2019-05-15T00:15:18.209Z,1.41
2019-05-15T00:16:58.552Z,1.57
2019-05-15T00:18:33.902Z,1.60
2019-05-15T00:20:09.959Z,1.53
2019-05-15T00:21:48.991Z,1.59
2019-05-15T00:23:24.954Z,1.60
2019-05-15T00:25:00.716Z,1.63
2019-05-15T00:26:38.369Z,1.61
2019-05-15T00:28:13.667Z,1.58
2019-05-15T00:29:49.790Z,1.55
2019-05-15T00:31:25.857Z,1.52
2019-05-15T00:33:02.760Z,1.49
2019-05-15T00:34:39.805Z,1.56
2019-05-15T00:36:19.129Z,1.56
2019-05-15T00:37:52.462Z,1.55
2019-05-15T00:39:30.641Z,1.58
2019-05-15T00:41:06.250Z,1.53
2019-05-15T00:42:44.859Z,1.52
2019-05-15T00:44:20.897Z,1.49
2019-05-15T00:46:01.024Z,1.47
2019-05-15T00:47:39.682Z,1.42
2019-05-15T00:49:15.074Z,1.44
2019-05-15T00:50:51.143Z,1.41
2019-05-15T00:52:28.138Z,1.38
2019-05-15T00:54:03.936Z,1.37
2019-05-15T00:55:39.727Z,1.38
2019-05-15T00:57:15.761Z,1.32
2019-05-15T00:58:54.684Z,1.29
2019-05-15T01:00:43.713Z,1.30
2019-05-15T01:02:19.736Z,1.36
2019-05-15T01:03:55.052Z,1.33
2019-05-15T01:05:31.090Z,1.32
2019-05-15T01:07:08.335Z,1.32
2019-05-15T01:08:43.989Z,1.29
2019-05-15T01:10:19.670Z,1.26
2019-05-15T01:11:55.403Z,1.23
2019-05-15T01:13:35.726Z,1.19
2019-05-15T01:15:13.921Z,1.13
2019-05-15T01:16:49.712Z,1.12
2019-05-15T01:18:25.693Z,1.12
2019-05-15T01:20:01.947Z,1.13
2019-05-15T01:21:38.620Z,1.07
2019-05-15T01:23:14.346Z,1.07
2019-05-15T01:24:50.253Z,1.06
2019-05-15T01:26:25.565Z,1.06
2019-05-15T01:28:01.286Z,1.01
2019-05-15T01:29:44.487Z,0.97
2019-05-15T01:31:14.711Z,0.97
2019-05-15T01:32:50.223Z,0.94
2019-05-15T01:34:29.382Z,0.90
2019-05-15T01:36:04.861Z,0.87
2019-05-15T01:37:40.840Z,0.85
2019-05-15T01:39:18.486Z,0.81
2019-05-15T01:40:53.775Z,0.79
2019-05-15T01:42:29.390Z,0.75
2019-05-15T01:44:05.204Z,0.74
2019-05-15T01:45:42.694Z,0.76
2019-05-15T01:47:19.144Z,0.79
2019-05-15T01:48:54.583Z,0.71
2019-05-15T01:50:30.335Z,0.67
2019-05-15T01:52:10.305Z,0.63
2019-05-15T01:53:48.172Z,0.61
2019-05-15T01:55:23.680Z,0.60
2019-05-15T01:56:59.594Z,0.57
2019-05-15T01:58:34.812Z,0.56
2019-05-15T02:00:11.070Z,0.53
2019-05-15T02:01:48.571Z,0.51
2019-05-15T02:03:25.591Z,0.47
2019-05-15T02:05:00.887Z,0.48
2019-05-15T02:06:38.925Z,0.44
2019-05-15T02:08:15.300Z,0.42
2019-05-15T02:09:51.599Z,0.43
2019-05-15T02:11:28.843Z,0.41
2019-05-15T02:13:04.864Z,0.39
2019-05-15T02:14:40.903Z,0.35
2019-05-15T02:16:18.988Z,0.34
2019-05-15T02:17:53.768Z,0.34
2019-05-15T02:21:23.765Z,0.31
2019-05-15T02:22:59.814Z,0.31
2019-05-15T02:24:38.853Z,0.28
2019-05-15T02:26:12.364Z,0.27
2019-05-15T02:27:48.052Z,0.28
2019-05-15T02:29:25.289Z,0.27
2019-05-15T02:31:00.801Z,0.26
2019-05-15T02:32:39.531Z,0.24
2019-05-15T02:34:13.377Z,0.26
2019-05-15T02:35:50.399Z,0.26
2019-05-15T02:37:29.384Z,0.24
2019-05-15T02:39:03.794Z,0.23
2019-05-15T02:40:40.425Z,0.21
2019-05-15T02:42:19.246Z,0.22
2019-05-15T02:43:53.698Z,0.20
2019-05-15T02:45:30.205Z,0.18
2019-05-15T02:47:05.725Z,0.15
2019-05-15T02:48:41.391Z,0.16
2019-05-15T02:50:20.226Z,0.14
2019-05-15T02:51:54.507Z,0.11
2019-05-15T02:53:32.070Z,0.11
2019-05-15T02:55:09.319Z,0.09
2019-05-15T02:56:45.294Z,0.05
2019-05-15T02:58:21.824Z,0.02
2019-05-15T02:59:59.400Z,0.01
2019-05-15T03:01:40.039Z,-0.02
2019-05-15T03:03:14.015Z,-0.04
2019-05-15T03:04:49.453Z,-0.07
2019-05-15T03:06:24.772Z,-0.08
2019-05-15T03:08:00.268Z,-0.08
2019-05-15T03:09:39.681Z,-0.11
2019-05-15T03:11:14.098Z,-0.11
2019-05-15T03:12:49.667Z,-0.13
2019-05-15T03:14:25.182Z,-0.14
2019-05-15T03:16:00.960Z,-0.18
2019-05-15T03:17:40.343Z,-0.16
2019-05-15T03:19:13.960Z,-0.19
2019-05-15T03:20:50.298Z,-0.21
2019-05-15T03:22:29.110Z,-0.26
2019-05-15T03:24:03.121Z,-0.29
2019-05-15T03:25:40.456Z,-0.31
2019-05-15T03:27:19.459Z,-0.33
2019-05-15T03:28:59.168Z,-0.34
2019-05-15T03:31:06.759Z,-0.32
2019-05-15T03:32:34.184Z,-0.37
2019-05-15T03:34:03.033Z,-0.40
2019-05-15T03:35:43.016Z,-0.39
2019-05-15T03:37:21.456Z,-0.44
2019-05-15T03:38:53.282Z,-0.44
2019-05-15T03:40:29.900Z,-0.42
2019-05-15T03:42:05.905Z,-0.42
2019-05-15T03:43:44.100Z,-0.42
2019-05-15T03:45:22.043Z,-0.43
2019-05-15T03:47:02.513Z,-0.43
2019-05-15T03:48:40.164Z,-0.46
2019-05-15T03:50:15.337Z,-0.46
2019-05-15T03:51:50.700Z,-0.43
2019-05-15T03:53:29.569Z,-0.43
2019-05-15T03:55:03.246Z,-0.39
2019-05-15T03:56:39.668Z,-0.38
2019-05-15T03:58:20.922Z,-0.35
2019-05-15T03:59:55.689Z,-0.34
2019-05-15T04:01:38.517Z,-0.33
2019-05-15T04:03:10.710Z,-0.33
2019-05-15T04:04:50.045Z,-0.34
2019-05-15T04:06:24.406Z,-0.36
2019-05-15T04:08:00.366Z,-0.33
2019-05-15T04:09:38.642Z,-0.33
2019-05-15T04:11:13.198Z,-0.29
2019-05-15T04:12:49.391Z,-0.25
2019-05-15T04:14:24.911Z,-0.20
2019-05-15T04:16:00.389Z,-0.27
2019-05-15T04:17:36.045Z,-0.26
2019-05-15T04:19:11.931Z,-0.24
2019-05-15T04:20:49.351Z,-0.24
2019-05-15T04:22:25.467Z,-0.20
2019-05-15T04:24:00.916Z,-0.21
2019-05-15T04:25:39.209Z,-0.22
2019-05-15T04:27:14.193Z,-0.20
2019-05-15T04:28:51.676Z,-0.05
2019-05-15T04:30:27.086Z,-0.08
2019-05-15T04:32:06.079Z,0.03
2019-05-15T04:33:40.537Z,0.14
2019-05-15T04:35:19.582Z,0.15
2019-05-15T04:36:53.926Z,0.26
2019-05-15T04:38:39.257Z,0.28
2019-05-15T04:40:13.353Z,0.34
2019-05-15T04:41:50.536Z,0.44
2019-05-15T04:43:30.357Z,0.63
2019-05-15T04:45:10.015Z,0.87
2019-05-15T04:46:44.985Z,1.17
2019-05-15T04:48:24.846Z,1.44
2019-05-15T04:50:00.752Z,1.75
2019-05-15T04:51:38.797Z,2.12
2019-05-15T04:53:19.283Z,2.45
2019-05-15T04:54:53.440Z,2.69
2019-05-15T04:56:29.424Z,2.95
2019-05-15T04:58:10.004Z,3.28
2019-05-15T04:59:45.898Z,3.46
2019-05-15T05:01:24.100Z,3.80
2019-05-15T05:03:01.428Z,4.11
2019-05-15T05:04:38.730Z,4.41
2019-05-15T05:06:19.043Z,4.70
2019-05-15T05:07:55.933Z,4.95
2019-05-15T05:09:31.961Z,5.33
2019-05-15T05:11:09.704Z,5.55
2019-05-15T05:12:44.381Z,5.85
2019-05-15T05:14:19.581Z,6.17
2019-05-15T05:15:58.464Z,6.31
2019-05-15T05:17:40.767Z,6.52
2019-05-15T05:19:32.954Z,6.73
2019-05-15T05:21:40.413Z,7.04
2019-05-15T05:23:19.192Z,7.22
2019-05-15T05:24:55.877Z,7.53
2019-05-15T05:26:32.170Z,7.63
2019-05-15T05:28:08.729Z,7.68
2019-05-15T05:29:44.677Z,7.49
2019-05-15T05:31:20.184Z,7.78
2019-05-15T05:33:00.128Z,7.82
2019-05-15T05:34:39.711Z,8.03
2019-05-15T05:36:15.510Z,7.88
2019-05-15T05:37:50.932Z,7.87
2019-05-15T05:40:04.606Z,8.26
2019-05-15T05:41:40.683Z,8.36
2019-05-15T05:43:18.242Z,8.48
2019-05-15T05:44:55.326Z,8.76
2019-05-15T05:46:35.369Z,8.76
2019-05-15T05:48:11.258Z,8.87
2019-05-15T05:49:48.843Z,8.84
2019-05-15T05:51:24.388Z,8.79
2019-05-15T05:53:00.509Z,8.55
2019-05-15T05:54:38.245Z,8.43
2019-05-15T05:56:18.109Z,8.56
2019-05-15T05:57:55.471Z,8.52
2019-05-15T05:59:31.128Z,8.51
2019-05-15T06:01:09.438Z,8.71
2019-05-15T06:02:48.777Z,8.81
2019-05-15T06:04:23.792Z,8.84
2019-05-15T06:06:09.422Z,8.94
2019-05-15T06:08:19.137Z,9.06
2019-05-15T06:09:58.095Z,8.98
2019-05-15T06:11:38.194Z,9.27
2019-05-15T06:13:14.565Z,9.26
2019-05-15T06:14:51.804Z,9.18
2019-05-15T06:16:28.534Z,9.46
2019-05-15T06:18:03.708Z,9.63
2019-05-15T06:19:39.868Z,9.46
2019-05-15T06:21:18.561Z,9.56
2019-05-15T06:22:57.960Z,9.63
2019-05-15T06:24:33.974Z,9.84
2019-05-15T06:26:11.222Z,9.99
2019-05-15T06:27:49.449Z,10.08
2019-05-15T06:29:29.239Z,9.84
2019-05-15T06:31:10.465Z,9.86
2019-05-15T06:33:05.028Z,10.23
2019-05-15T06:34:28.577Z,10.27
2019-05-15T06:36:04.527Z,9.91
2019-05-15T06:37:40.143Z,10.07
2019-05-15T06:39:20.330Z,10.36
2019-05-15T06:40:58.852Z,10.69
2019-05-15T06:42:38.950Z,10.43
2019-05-15T06:44:19.227Z,10.46
2019-05-15T06:45:59.505Z,10.65
2019-05-15T06:47:35.025Z,10.52
2019-05-15T06:49:10.863Z,10.86
2019-05-15T06:50:48.816Z,10.51
2019-05-15T06:52:24.694Z,10.36
2019-05-15T06:54:00.086Z,10.14
2019-05-15T06:55:38.848Z,10.16
2019-05-15T06:57:13.561Z,9.88
2019-05-15T06:58:49.257Z,10.30
2019-05-15T07:00:28.428Z,10.33
2019-05-15T07:02:04.317Z,10.71
2019-05-15T07:03:39.629Z,10.55
2019-05-15T07:05:19.187Z,10.28
2019-05-15T07:06:58.367Z,10.22
2019-05-15T07:08:34.355Z,10.35
2019-05-15T07:10:09.701Z,10.58
2019-05-15T07:11:48.250Z,10.46
2019-05-15T07:13:24.248Z,10.48
2019-05-15T07:15:00.024Z,10.46
2019-05-15T07:16:35.172Z,10.64
2019-05-15T07:18:34.416Z,10.49
2019-05-15T07:20:18.566Z,10.58
2019-05-15T07:21:54.420Z,10.33
2019-05-15T07:23:30.754Z,10.44
2019-05-15T07:25:12.447Z,10.63
2019-05-15T07:26:49.429Z,10.77
2019-05-15T07:28:24.842Z,10.90
2019-05-15T07:30:07.753Z,10.70
2019-05-15T07:31:47.712Z,10.52
2019-05-15T07:33:36.747Z,10.59
2019-05-15T07:35:03.163Z,10.86
2019-05-15T07:36:40.854Z,10.97
2019-05-15T07:38:23.389Z,11.10
2019-05-15T07:39:59.227Z,11.43
2019-05-15T07:41:35.340Z,11.42
2019-05-15T07:43:12.852Z,11.44
2019-05-15T07:44:52.127Z,11.29
2019-05-15T07:46:28.845Z,11.00
2019-05-15T07:48:04.336Z,11.19
2019-05-15T07:49:39.919Z,10.48
2019-05-15T07:51:17.815Z,11.04
2019-05-15T07:52:55.602Z,11.38
2019-05-15T07:54:31.316Z,11.37
2019-05-15T07:56:11.742Z,11.31
2019-05-15T07:57:44.722Z,11.13
2019-05-15T07:59:22.771Z,11.06
2019-05-15T08:02:40.280Z,11.09
2019-05-15T08:04:26.184Z,10.97
2019-05-15T08:06:24.339Z,10.58
2019-05-15T08:09:55.135Z,10.66
2019-05-15T08:11:34.606Z,10.86
2019-05-15T08:13:18.177Z,10.93
2019-05-15T08:14:54.353Z,11.37
2019-05-15T08:16:43.257Z,10.84
2019-05-15T08:18:28.423Z,11.21
2019-05-15T08:20:11.109Z,11.40
2019-05-15T08:21:58.391Z,11.69
2019-05-15T08:23:38.981Z,11.64
2019-05-15T08:25:30.144Z,11.51
2019-05-15T08:26:50.337Z,11.81
2019-05-15T08:28:28.865Z,12.08
2019-05-15T08:30:08.767Z,12.40
2019-05-15T08:31:43.464Z,12.41
2019-05-15T08:33:22.053Z,12.70
2019-05-15T08:34:59.872Z,12.43
2019-05-15T08:36:39.218Z,12.39
2019-05-15T08:38:18.197Z,12.43
2019-05-15T08:39:59.625Z,12.27
2019-05-15T08:41:35.399Z,12.64
2019-05-15T08:43:19.276Z,12.72
2019-05-15T08:44:59.253Z,12.87
2019-05-15T08:46:34.586Z,13.26
2019-05-15T08:48:12.388Z,13.68
2019-05-15T08:49:48.460Z,13.49
2019-05-15T08:51:25.776Z,13.60
2019-05-15T08:53:05.635Z,13.69
2019-05-15T08:54:41.344Z,13.79
2019-05-15T08:56:39.303Z,13.67
2019-05-15T08:58:20.774Z,13.37
2019-05-15T08:59:58.285Z,13.33
2019-05-15T09:01:34.002Z,13.16
2019-05-15T09:03:12.582Z,13.56
2019-05-15T09:04:51.768Z,13.81
2019-05-15T09:06:30.850Z,14.31
2019-05-15T09:08:18.847Z,14.55
2019-05-15T09:09:51.339Z,14.83
2019-05-15T09:11:28.383Z,14.27
2019-05-15T09:13:03.824Z,14.60
2019-05-15T09:14:44.908Z,14.44
2019-05-15T09:16:23.084Z,14.41
2019-05-15T09:18:11.015Z,14.47
2019-05-15T09:19:38.782Z,14.77
2019-05-15T09:21:15.934Z,14.94
2019-05-15T09:22:51.302Z,14.57
2019-05-15T09:24:28.589Z,14.70
2019-05-15T09:26:04.081Z,14.65
2019-05-15T09:27:42.386Z,14.32
2019-05-15T09:29:18.667Z,14.26
2019-05-15T09:30:54.145Z,14.38
2019-05-15T09:32:31.954Z,13.69
2019-05-15T09:34:24.441Z,13.66
2019-05-15T09:36:00.889Z,14.23
2019-05-15T09:37:38.281Z,14.33
2019-05-15T09:39:22.169Z,14.49
2019-05-15T09:40:58.515Z,14.73
2019-05-15T09:42:33.971Z,15.19
2019-05-15T09:44:09.565Z,15.01
2019-05-15T09:45:45.098Z,15.23
2019-05-15T09:47:23.061Z,15.40
2019-05-15T09:49:02.449Z,15.72
2019-05-15T09:50:42.086Z,15.08
2019-05-15T09:52:22.513Z,15.71
2019-05-15T09:54:00.431Z,15.82
2019-05-15T09:55:39.354Z,15.96
2019-05-15T09:57:20.376Z,15.92
2019-05-15T09:59:01.830Z,15.03
2019-05-15T10:00:40.185Z,15.52
2019-05-15T10:02:28.372Z,15.20
2019-05-15T10:04:04.228Z,14.48
2019-05-15T10:05:57.508Z,14.99
2019-05-15T10:07:33.433Z,14.64
2019-05-15T10:09:32.213Z,14.60
2019-05-15T10:11:01.422Z,15.02
2019-05-15T10:12:39.462Z,15.61
2019-05-15T10:14:19.279Z,15.58
2019-05-15T10:15:59.599Z,15.75
2019-05-15T10:17:39.231Z,15.99
2019-05-15T10:19:15.156Z,16.06
2019-05-15T10:20:53.650Z,16.02
2019-05-15T10:22:30.571Z,16.53
2019-05-15T10:24:09.416Z,17.20
2019-05-15T10:25:58.754Z,17.18
2019-05-15T10:27:31.301Z,17.06
2019-05-15T10:29:10.788Z,17.08
2019-05-15T10:30:50.091Z,17.09
2019-05-15T10:32:29.022Z,16.63
2019-05-15T10:34:05.505Z,16.92
2019-05-15T10:35:43.095Z,16.62
2019-05-15T10:37:21.458Z,16.88
2019-05-15T10:39:00.526Z,16.49
2019-05-15T10:40:58.489Z,16.32
2019-05-15T10:42:23.181Z,15.97
2019-05-15T10:44:13.789Z,16.30
2019-05-15T10:45:54.671Z,16.87
2019-05-15T10:47:30.778Z,16.85
2019-05-15T10:49:08.626Z,16.17
2019-05-15T10:50:47.585Z,16.53
2019-05-15T10:52:24.507Z,16.98
2019-05-15T10:53:59.822Z,16.77
2019-05-15T10:55:35.602Z,17.39
2019-05-15T10:57:10.748Z,17.09
2019-05-15T10:58:50.609Z,16.73
2019-05-15T11:00:28.606Z,16.10
2019-05-15T11:02:05.186Z,16.21
2019-05-15T11:03:50.262Z,15.78
2019-05-15T11:05:41.849Z,16.62
2019-05-15T11:07:19.504Z,16.66
2019-05-15T11:09:01.845Z,16.64
2019-05-15T11:10:41.474Z,16.74
2019-05-15T11:12:14.902Z,16.63
2019-05-15T11:13:50.469Z,16.68
2019-05-15T11:15:30.089Z,16.58
2019-05-15T11:17:08.840Z,16.62
2019-05-15T11:18:58.506Z,16.40
2019-05-15T11:20:41.176Z,16.20
2019-05-15T11:22:20.450Z,15.72
2019-05-15T11:23:58.858Z,15.28
2019-05-15T11:25:41.975Z,15.59
2019-05-15T11:27:21.384Z,15.46
2019-05-15T11:29:00.262Z,15.81
2019-05-15T11:30:35.439Z,16.32
2019-05-15T11:32:29.465Z,16.38
2019-05-15T11:34:05.313Z,16.11
2019-05-15T11:35:56.739Z,16.45
2019-05-15T11:37:24.322Z,16.60
2019-05-15T11:39:03.625Z,17.06
2019-05-15T11:40:39.063Z,16.80
2019-05-15T11:42:16.659Z,15.85
2019-05-15T11:43:51.767Z,16.24
2019-05-15T11:48:02.784Z,16.46
2019-05-15T11:49:40.196Z,16.32
2019-05-15T11:51:18.521Z,15.64
2019-05-15T11:52:54.203Z,16.49
2019-05-15T11:54:29.540Z,16.26
2019-05-15T11:56:05.562Z,16.45
2019-05-15T11:57:47.335Z,16.60
2019-05-15T11:59:26.162Z,16.36
2019-05-15T12:01:03.437Z,16.38
2019-05-15T12:02:40.212Z,16.21
2019-05-15T12:04:30.165Z,16.07
2019-05-15T12:06:14.925Z,16.30
2019-05-15T12:07:38.216Z,16.29
2019-05-15T12:09:13.849Z,16.10
2019-05-15T12:10:49.692Z,16.30
2019-05-15T12:12:31.785Z,16.34
2019-05-15T12:14:08.889Z,15.82
2019-05-15T12:15:44.833Z,16.05
2019-05-15T12:17:20.173Z,16.12
2019-05-15T12:18:58.634Z,16.12
2019-05-15T12:20:33.174Z,16.31
2019-05-15T12:22:11.976Z,16.19
2019-05-15T12:23:51.099Z,15.84
2019-05-15T12:25:39.801Z,16.42
2019-05-15T12:27:18.444Z,17.07
2019-05-15T12:28:59.128Z,17.15
2019-05-15T12:30:40.379Z,16.88
2019-05-15T12:32:26.479Z,15.95
2019-05-15T12:33:53.476Z,15.39
2019-05-15T12:35:29.698Z,15.07
2019-05-15T12:37:13.010Z,16.13
2019-05-15T12:38:50.207Z,16.44
2019-05-15T13:00:34.884Z,17.01
2019-05-15T13:02:10.671Z,16.91
2019-05-15T13:03:45.930Z,16.16
2019-05-15T13:05:21.698Z,16.77
2019-05-15T13:07:12.245Z,15.95
2019-05-15T13:08:38.483Z,16.56
2019-05-15T13:10:14.354Z,16.76
2019-05-15T13:11:52.895Z,16.56
2019-05-15T13:13:34.019Z,16.18
2019-05-15T13:15:13.458Z,16.11
2019-05-15T13:16:48.863Z,16.10
2019-05-15T13:18:28.621Z,15.94
2019-05-15T13:20:03.526Z,16.15
2019-05-15T13:21:43.019Z,16.30
2019-05-15T13:23:28.636Z,16.49
2019-05-15T13:25:12.930Z,16.71
2019-05-15T13:27:07.798Z,16.51
2019-05-15T13:28:48.629Z,16.76
2019-05-15T13:30:30.153Z,16.97
2019-05-15T13:32:08.045Z,16.48
2019-05-15T13:33:44.203Z,16.51
2019-05-15T13:35:22.315Z,16.19
2019-05-15T13:37:11.113Z,16.50
2019-05-15T13:39:13.658Z,16.80
2019-05-15T13:40:54.838Z,16.16
2019-05-15T13:42:34.299Z,16.64
2019-05-15T13:44:22.723Z,16.69
2019-05-15T13:46:08.825Z,16.95
2019-05-15T13:47:47.918Z,16.95
2019-05-15T13:49:23.620Z,16.44
2019-05-15T13:50:59.411Z,16.57
2019-05-15T13:52:39.273Z,16.48
2019-05-15T13:54:18.820Z,16.38
2019-05-15T13:55:59.371Z,16.06
2019-05-15T13:57:38.346Z,15.76
2019-05-15T13:59:15.759Z,15.52
2019-05-15T14:00:52.597Z,15.57
2019-05-15T14:02:30.468Z,15.40
2019-05-15T14:04:08.538Z,16.06
2019-05-15T14:05:48.888Z,16.13
2019-05-15T14:07:25.662Z,16.52
2019-05-15T14:09:04.925Z,16.62
2019-05-15T14:10:40.962Z,16.90
2019-05-15T14:12:18.944Z,16.72
2019-05-15T14:13:59.292Z,16.85
2019-05-15T14:15:38.025Z,16.55
2019-05-15T14:17:22.929Z,16.32
2019-05-15T14:19:05.204Z,16.22
2019-05-15T14:20:49.053Z,16.63
2019-05-15T14:22:31.193Z,16.66
2019-05-15T14:24:08.995Z,16.80
2019-05-15T14:25:48.226Z,16.93
2019-05-15T14:27:29.501Z,17.08
2019-05-15T14:29:08.820Z,17.18
2019-05-15T14:30:44.575Z,16.77
2019-05-15T14:32:35.362Z,16.24
2019-05-15T14:34:03.810Z,16.54
2019-05-15T14:35:48.353Z,16.22
2019-05-15T14:37:28.597Z,16.24
2019-05-15T14:39:15.629Z,15.99
2019-05-15T14:40:51.556Z,16.02
2019-05-15T14:42:29.326Z,15.91
2019-05-15T14:44:14.618Z,16.28
2019-05-15T14:45:47.975Z,15.46
2019-05-15T14:47:26.256Z,15.19
2019-05-15T14:49:08.769Z,15.27
2019-05-15T14:50:47.527Z,15.83
2019-05-15T14:52:22.615Z,16.07
2019-05-15T14:54:01.106Z,15.27
2019-05-15T14:55:49.206Z,15.03
2019-05-15T14:57:30.731Z,15.66
2019-05-15T14:59:09.080Z,15.43
2019-05-15T15:00:54.539Z,15.72
2019-05-15T15:02:33.267Z,15.64
2019-05-15T15:04:09.026Z,15.88
2019-05-15T15:05:49.106Z,16.29
2019-05-15T15:07:28.279Z,16.59
2019-05-15T15:09:08.384Z,16.48
2019-05-15T15:10:44.394Z,15.87
2019-05-15T15:12:22.189Z,15.97
2019-05-15T15:13:59.363Z,16.09
2019-05-15T15:15:37.897Z,15.76
2019-05-15T15:17:12.628Z,15.88
2019-05-15T15:18:48.841Z,15.28
2019-05-15T15:20:32.222Z,15.47
2019-05-15T15:22:14.529Z,15.68
2019-05-15T15:23:54.113Z,16.31
2019-05-15T15:25:39.692Z,16.04
2019-05-15T15:27:27.953Z,16.31
2019-05-15T15:29:08.533Z,16.31
2019-05-15T15:30:48.781Z,16.15
2019-05-15T15:32:25.437Z,15.88
2019-05-15T15:34:02.386Z,15.20
2019-05-15T15:35:39.581Z,15.51
2019-05-15T15:37:15.597Z,15.46
2019-05-15T15:38:51.757Z,15.47
2019-05-15T15:40:28.236Z,15.53
2019-05-15T15:42:04.126Z,15.53
2019-05-15T15:43:40.356Z,15.65
2019-05-15T15:45:19.126Z,15.57
2019-05-15T15:46:59.704Z,15.36
2019-05-15T15:48:38.900Z,15.24
2019-05-15T15:50:18.311Z,15.22
2019-05-15T15:51:54.210Z,15.13
2019-05-15T15:53:31.186Z,14.70
2019-05-15T15:55:09.358Z,14.96
2019-05-15T15:56:45.287Z,14.98
2019-05-15T15:58:23.342Z,15.13
2019-05-15T16:00:03.310Z,15.44
2019-05-15T16:01:49.153Z,15.71
2019-05-15T16:03:24.610Z,15.46
2019-05-15T16:05:04.098Z,15.57
2019-05-15T16:06:40.391Z,15.51
2019-05-15T16:08:19.063Z,15.21
2019-05-15T16:09:58.904Z,15.13
2019-05-15T16:11:53.320Z,14.85
2019-05-15T16:13:32.308Z,15.26
2019-05-15T16:15:09.089Z,15.49
2019-05-15T16:16:49.118Z,15.37
2019-05-15T16:18:28.887Z,15.41
2019-05-15T16:20:11.240Z,15.51
2019-05-15T16:21:59.531Z,15.00
2019-05-15T16:23:39.629Z,15.08
2019-05-15T16:25:18.535Z,15.05
2019-05-15T16:27:00.966Z,14.68
2019-05-15T16:28:38.787Z,14.70
2019-05-15T16:30:18.747Z,14.74
2019-05-15T16:31:58.283Z,14.76
2019-05-15T16:33:38.867Z,14.94
2019-05-15T16:35:18.489Z,14.67
2019-05-15T16:36:55.290Z,14.52
2019-05-15T16:38:44.152Z,14.42
2019-05-15T16:40:19.567Z,14.43
2019-05-15T16:42:00.241Z,14.75
2019-05-15T16:43:42.243Z,14.81
2019-05-15T16:45:21.338Z,14.33
2019-05-15T16:47:00.287Z,13.96
2019-05-15T16:48:38.782Z,13.75
2019-05-15T16:50:18.053Z,13.66
2019-05-15T16:52:00.633Z,13.89
2019-05-15T16:53:38.180Z,13.92
2019-05-15T16:55:15.639Z,14.02
2019-05-15T16:56:55.813Z,14.11
2019-05-15T16:58:42.172Z,14.38
2019-05-15T17:00:23.673Z,14.58
2019-05-15T17:02:08.482Z,14.43
2019-05-15T17:03:42.109Z,14.57
2019-05-15T17:05:18.577Z,14.44
2019-05-15T17:06:59.497Z,14.14
2019-05-15T17:08:38.785Z,13.95
2019-05-15T17:10:20.654Z,13.92
2019-05-15T17:11:58.353Z,13.58
2019-05-15T17:13:39.215Z,13.74
2019-05-15T17:15:23.984Z,13.75
2019-05-15T17:17:08.546Z,13.81
2019-05-15T17:18:45.730Z,13.85
2019-05-15T17:20:21.317Z,13.66
2019-05-15T17:22:02.464Z,13.56
2019-05-15T17:23:39.038Z,13.40
2019-05-15T17:25:14.280Z,13.20
2019-05-15T17:26:53.032Z,12.99
2019-05-15T17:28:33.704Z,12.66
2019-05-15T17:30:10.130Z,12.72
2019-05-15T17:31:48.771Z,12.87
2019-05-15T17:33:28.881Z,13.04
2019-05-15T17:35:20.099Z,13.13
2019-05-15T17:36:58.365Z,13.30
2019-05-15T17:38:38.114Z,13.59
2019-05-15T17:40:17.812Z,13.82
2019-05-15T17:41:59.325Z,13.78
2019-05-15T17:43:37.905Z,13.59
2019-05-15T17:45:22.674Z,13.79
2019-05-15T17:47:33.763Z,14.06
2019-05-15T17:49:15.731Z,14.00
2019-05-15T17:50:59.564Z,13.70
2019-05-15T17:52:39.175Z,13.61
2019-05-15T17:54:18.479Z,13.51
2019-05-15T17:55:58.680Z,13.64
2019-05-15T17:57:38.649Z,13.71
2019-05-15T17:59:22.107Z,13.58
2019-05-15T18:01:00.109Z,13.51
2019-05-15T18:02:48.883Z,13.27
2019-05-15T18:04:38.569Z,13.03
2019-05-15T18:06:24.523Z,12.74
2019-05-15T18:08:00.037Z,12.57
2019-05-15T18:09:48.394Z,12.43
2019-05-15T18:11:12.682Z,12.55
2019-05-15T18:12:52.324Z,12.56
2019-05-15T18:14:30.764Z,12.62
2019-05-15T18:16:13.681Z,12.57
2019-05-15T18:17:49.632Z,12.35
2019-05-15T18:19:39.938Z,12.29
2019-05-15T18:21:23.507Z,12.03
2019-05-15T18:23:05.092Z,12.00
2019-05-15T18:24:58.105Z,11.93
2019-05-15T18:26:38.712Z,12.01
2019-05-15T18:28:14.695Z,12.10
2019-05-15T18:29:51.438Z,11.98
2019-05-15T18:31:31.499Z,11.91
2019-05-15T18:33:08.831Z,11.97
2019-05-15T18:34:52.798Z,12.00
2019-05-15T18:36:32.873Z,12.03
2019-05-15T18:38:09.992Z,12.05
2019-05-15T18:39:49.373Z,11.87
2019-05-15T18:41:28.503Z,11.90
2019-05-15T18:43:04.823Z,11.83
2019-05-15T18:44:41.351Z,11.80
2019-05-15T18:46:29.738Z,11.72
2019-05-15T18:48:18.344Z,11.58
2019-05-15T18:50:05.359Z,11.38
2019-05-15T18:51:55.480Z,11.23
2019-05-15T18:53:33.393Z,11.13
2019-05-15T18:55:13.604Z,10.90
2019-05-15T18:56:51.708Z,10.80
2019-05-15T18:58:39.593Z,10.69
2019-05-15T19:00:30.201Z,10.58
2019-05-15T19:02:01.408Z,10.44
2019-05-15T19:03:38.491Z,10.23
2019-05-15T19:05:24.081Z,10.06
2019-05-15T19:07:01.601Z,9.98
2019-05-15T19:08:43.225Z,9.87
2019-05-15T19:10:28.151Z,9.70
2019-05-15T19:12:11.357Z,9.53
2019-05-15T19:13:52.541Z,9.40
2019-05-15T19:15:29.927Z,9.29
2019-05-15T19:17:10.187Z,9.17
2019-05-15T19:18:47.928Z,9.12
2019-05-15T19:20:23.213Z,8.90
2019-05-15T19:22:07.750Z,8.76
2019-05-15T19:23:50.112Z,8.63
2019-05-15T19:25:22.848Z,8.50
2019-05-15T19:26:59.818Z,8.44
2019-05-15T19:28:35.320Z,8.31
2019-05-15T19:30:14.993Z,8.15
2019-05-15T19:31:51.071Z,8.09
2019-05-15T19:33:34.434Z,7.96
2019-05-15T19:35:04.183Z,7.82
2019-05-15T19:36:42.310Z,7.73
2019-05-15T19:38:24.049Z,7.64
2019-05-15T19:40:00.241Z,7.56
2019-05-15T19:41:38.383Z,7.52
2019-05-15T19:43:21.533Z,7.46
2019-05-15T19:47:01.594Z,7.36
2019-05-15T19:48:39.922Z,7.29
2019-05-15T19:50:18.042Z,7.16
2019-05-15T19:51:55.416Z,7.16
2019-05-15T19:53:33.963Z,7.08
2019-05-15T19:55:26.943Z,6.98
2019-05-15T19:57:04.762Z,6.98
2019-05-15T19:58:48.491Z,6.94
2019-05-15T20:00:32.790Z,7.02
2019-05-15T20:02:08.972Z,6.88
2019-05-15T20:03:50.698Z,6.81
2019-05-15T20:05:25.537Z,6.81
2019-05-15T20:07:12.079Z,6.78
2019-05-15T20:08:50.940Z,6.78
2019-05-15T20:10:29.589Z,6.72
2019-05-15T20:12:27.930Z,6.74
2019-05-15T20:14:07.819Z,6.76
2019-05-15T20:17:59.901Z,6.72
2019-05-15T20:19:43.900Z,6.75
2019-05-15T20:21:23.214Z,6.73
2019-05-15T20:23:00.573Z,6.70
2019-05-15T20:24:38.689Z,6.62
2019-05-15T20:26:18.053Z,6.71
2019-05-15T20:27:53.886Z,6.67
2019-05-15T20:29:35.279Z,6.73
2019-05-15T20:31:11.165Z,6.77
2019-05-15T20:32:47.990Z,6.77
2019-05-15T20:34:25.565Z,6.93
2019-05-15T20:36:04.046Z,6.91
2019-05-15T20:37:42.428Z,6.94
2019-05-15T20:39:18.444Z,6.96
2019-05-15T20:40:54.725Z,6.99
2019-05-15T20:42:34.191Z,7.07
2019-05-15T20:44:12.904Z,7.05
2019-05-15T20:45:49.945Z,6.97
2019-05-15T20:47:31.124Z,6.93
2019-05-15T20:49:11.981Z,6.89
2019-05-15T20:51:04.517Z,6.77
2019-05-15T20:52:41.545Z,6.78
2019-05-15T20:54:21.690Z,6.66
2019-05-15T20:55:59.457Z,6.69
2019-05-15T20:57:42.142Z,6.54
2019-05-15T20:59:33.084Z,6.37
2019-05-15T21:01:11.518Z,6.38
2019-05-15T21:02:50.382Z,6.19
2019-05-15T21:04:28.093Z,6.16
2019-05-15T21:06:12.403Z,6.12
2019-05-15T21:07:49.416Z,6.04
2019-05-15T21:09:34.055Z,5.91
2019-05-15T21:11:17.956Z,5.84
2019-05-15T21:12:55.599Z,5.79
2019-05-15T21:14:31.097Z,5.80
2019-05-15T21:16:28.898Z,5.83
2019-05-15T21:18:15.783Z,5.78
2019-05-15T21:19:58.367Z,5.71
2019-05-15T21:21:47.841Z,5.67
2019-05-15T21:23:35.752Z,5.67
2019-05-15T21:25:14.596Z,5.60
2019-05-15T21:26:53.827Z,5.59
2019-05-15T21:28:31.408Z,5.60
2019-05-15T21:30:13.913Z,5.53
2019-05-15T21:31:51.310Z,5.49
2019-05-15T21:33:30.899Z,5.44
2019-05-15T21:35:14.240Z,5.43
2019-05-15T21:37:08.741Z,5.42
2019-05-15T21:38:48.053Z,5.44
2019-05-15T21:40:25.257Z,5.51
2019-05-15T21:42:08.867Z,5.52
2019-05-15T21:43:50.365Z,5.51
2019-05-15T21:45:33.024Z,5.54
2019-05-15T21:47:09.658Z,5.61
2019-05-15T21:48:50.382Z,5.51
2019-05-15T21:50:28.311Z,5.51
2019-05-15T21:52:05.201Z,5.57
2019-05-15T21:53:41.813Z,5.68
2019-05-15T21:55:19.598Z,5.79
2019-05-15T21:57:18.835Z,5.73
2019-05-15T21:58:43.840Z,5.85
2019-05-15T22:00:34.470Z,5.85
2019-05-15T22:02:10.675Z,5.85
2019-05-15T22:03:53.367Z,5.91
2019-05-15T22:05:30.447Z,5.99